Time;durP1;ratioP1;P1;durP2;ratioP2;P2;SDS_P1;SDS_P2;PMS_P1;PMS_P2;Temp;Humidity;BMP_temperature;BMP_pressure;BME280_temperature;BME280_humidity;BME280_pressure;Samples;Min_cycle;Max_cycle;Signal;HPM_P1;HPM_P2
2021/03/30 00:02:13;;;;;;;39.13;26.27;;;;;;;9.16;81.33;101307.45;115248;1199;103023;-77
2021/03/30 00:04:41;;;;;;;41.67;28.37;;;;;;;9.16;81.61;101302.25;115346;1200;103143;-78
2021/03/30 00:07:08;;;;;;;44.00;28.27;;;;;;;9.17;81.40;101300.50;115334;1198;103040;-78
2021/03/30 00:09:35;;;;;;;39.70;26.30;;;;;;;9.17;81.49;101298.77;115328;1200;103102;-78
2021/03/30 00:12:04;;;;;;;37.05;26.30;;;;;;;9.15;81.37;101295.28;115245;1198;103124;-78
2021/03/30 00:14:31;;;;;;;39.80;26.93;;;;;;;9.13;81.30;101294.44;115582;1196;103430;-78
2021/03/30 00:16:59;;;;;;;39.73;26.93;;;;;;;9.14;81.55;101290.09;115348;1199;103002;-79
2021/03/30 00:19:26;;;;;;;40.93;27.47;;;;;;;9.17;81.54;101295.30;115362;1199;103097;-78
2021/03/30 00:21:53;;;;;;;41.60;27.23;;;;;;;9.18;81.36;101291.81;115316;1199;103104;-78
2021/03/30 00:24:20;;;;;;;42.60;29.50;;;;;;;9.20;81.38;101295.27;115410;1199;103107;-78
2021/03/30 00:26:47;;;;;;;48.17;34.63;;;;;;;9.21;81.61;101291.78;115305;1199;103064;-78
2021/03/30 00:29:14;;;;;;;45.97;34.47;;;;;;;9.24;81.57;101297.81;115300;1199;103180;-77
2021/03/30 00:31:41;;;;;;;53.05;37.80;;;;;;;9.25;81.46;101291.73;115596;1198;103094;-78
2021/03/30 00:34:08;;;;;;;45.70;31.47;;;;;;;9.25;81.33;101290.86;115339;1199;103105;-78
2021/03/30 00:36:36;;;;;;;43.80;30.57;;;;;;;9.22;81.25;101291.77;115555;1196;103203;-78
2021/03/30 00:39:04;;;;;;;42.97;29.60;;;;;;;9.20;81.30;101295.27;115266;1199;102989;-78
2021/03/30 00:41:39;;;;;;;41.90;28.33;;;;;;;9.18;81.47;101297.88;115300;1197;102989;-77
2021/03/30 00:44:13;;;;;;;40.37;28.57;;;;;;;9.17;81.33;101290.95;115320;1196;103031;-78
2021/03/30 00:46:44;;;;;;;35.73;25.43;;;;;;;9.18;81.58;101289.22;115298;1199;103014;-78
2021/03/30 00:49:14;;;;;;;35.55;25.40;;;;;;;9.17;81.38;101284.89;115414;1199;102999;-78
2021/03/30 00:51:43;;;;;;;35.00;25.03;;;;;;;9.15;81.59;101286.61;115255;1199;103072;-78
2021/03/30 00:54:29;;;;;;;35.95;24.13;;;;;;;9.12;81.58;101286.65;115335;1199;103018;-78
2021/03/30 00:57:08;;;;;;;40.60;25.33;;;;;;;9.13;81.55;101283.17;115563;1199;103059;-78
2021/03/30 00:59:35;;;;;;;31.37;23.37;;;;;;;9.14;81.63;101290.09;115348;1198;103149;-79
2021/03/30 01:02:02;;;;;;;33.55;24.40;;;;;;;9.13;81.75;101284.03;115321;1198;103069;-77
2021/03/30 01:04:30;;;;;;;34.60;24.37;;;;;;;9.13;81.37;101296.18;115574;1200;102409;-79
2021/03/30 01:06:57;;;;;;;35.57;25.07;;;;;;;9.14;81.34;101284.89;115599;1196;103031;-78
2021/03/30 01:09:32;;;;;;;34.87;23.87;;;;;;;9.14;81.87;101295.30;115527;1199;103024;-78
2021/03/30 01:12:18;;;;;;;38.83;26.47;;;;;;;9.16;81.53;101298.78;115391;1200;104101;-79
2021/03/30 01:14:57;;;;;;;33.97;23.43;;;;;;;9.15;81.62;101292.69;115575;1199;102973;-78
2021/03/30 01:17:48;;;;;;;37.03;24.37;;;;;;;9.17;81.56;101290.09;115556;1199;103004;-78
2021/03/30 01:20:36;;;;;;;32.30;22.95;;;;;;;9.16;81.72;101285.77;115313;1197;102980;-78
2021/03/30 01:23:39;;;;;;;30.43;22.47;;;;;;;9.17;81.84;101290.09;115321;1200;103011;-78
2021/03/30 01:26:16;;;;;;;34.90;25.83;;;;;;;9.16;81.79;101289.23;115448;1197;103091;-78
2021/03/30 01:29:17;;;;;;;34.88;26.33;;;;;;;9.17;81.70;101296.16;115591;1199;103015;-77
2021/03/30 01:31:58;;;;;;;35.03;24.93;;;;;;;9.19;81.69;101288.34;115531;1196;103053;-78
2021/03/30 01:34:29;;;;;;;39.53;24.83;;;;;;;9.18;81.70;101291.81;115560;1198;102976;-77
2021/03/30 01:36:59;;;;;;;38.95;27.20;;;;;;;9.20;81.60;101290.06;115277;1200;103072;-78
2021/03/30 01:39:27;;;;;;;33.75;25.45;;;;;;;9.21;81.63;101279.63;115428;1196;103075;-78
2021/03/30 01:41:55;;;;;;;37.80;25.65;;;;;;;9.21;81.43;101282.23;115289;1197;103034;-78
2021/03/30 01:44:26;;;;;;;38.75;27.35;;;;;;;9.22;81.45;101283.95;115260;1200;103006;-78
2021/03/30 01:46:55;;;;;;;40.87;27.50;;;;;;;9.19;81.50;101273.58;115322;1199;103024;-78
2021/03/30 01:49:24;;;;;;;38.60;27.03;;;;;;;9.20;81.67;101267.49;115280;1199;103059;-77
2021/03/30 01:51:53;;;;;;;37.90;25.43;;;;;;;9.17;81.73;101270.13;115337;1199;103081;-78
2021/03/30 01:54:22;;;;;;;35.80;25.93;;;;;;;9.16;81.60;101275.36;115601;1199;103202;-77
2021/03/30 01:56:53;;;;;;;36.60;26.93;;;;;;;9.17;81.61;101274.48;115299;1199;103187;-78
2021/03/30 01:59:22;;;;;;;33.47;25.20;;;;;;;9.20;81.62;101271.84;115556;1199;102999;-77
2021/03/30 02:01:50;;;;;;;39.67;26.40;;;;;;;9.22;81.55;101278.75;115313;1200;103046;-77
2021/03/30 02:04:21;;;;;;;34.85;25.80;;;;;;;9.22;81.65;101278.75;115653;1200;102982;-78
2021/03/30 02:06:49;;;;;;;33.80;25.43;;;;;;;9.25;81.51;101275.25;115392;1199;102078;-77
2021/03/30 02:09:23;;;;;;;32.07;23.97;;;;;;;9.25;81.76;101276.11;115298;1196;103091;-77
2021/03/30 02:11:55;;;;;;;36.13;24.47;;;;;;;9.25;81.47;101272.64;115342;1199;102992;-77
2021/03/30 02:14:23;;;;;;;34.23;24.10;;;;;;;9.23;81.34;101271.80;115400;1198;103008;-77
2021/03/30 02:16:59;;;;;;;37.03;24.23;;;;;;;9.23;81.58;101263.99;115309;1199;103165;-77
2021/03/30 02:19:42;;;;;;;33.87;24.77;;;;;;;9.23;81.44;101270.06;115319;1199;103031;-78
2021/03/30 02:22:22;;;;;;;35.40;23.70;;;;;;;9.24;81.44;101265.72;115437;1199;102961;-78
2021/03/30 02:24:51;;;;;;;34.85;25.05;;;;;;;9.25;81.42;101265.70;115324;1200;103121;-77
2021/03/30 02:27:21;;;;;;;33.75;23.35;;;;;;;9.26;81.39;101261.35;115317;1200;102999;-77
2021/03/30 02:29:51;;;;;;;32.30;23.50;;;;;;;9.25;81.41;101268.30;115321;1196;104001;-78
2021/03/30 02:32:20;;;;;;;34.73;23.57;;;;;;;9.26;81.18;101266.56;115348;1199;102035;-76
2021/03/30 02:34:51;;;;;;;36.73;23.60;;;;;;;9.25;81.22;101262.23;115374;1196;103117;-77
2021/03/30 02:37:19;;;;;;;39.83;24.83;;;;;;;9.25;81.31;101263.09;115297;1196;103031;-77
2021/03/30 02:39:48;;;;;;;35.73;25.17;;;;;;;9.24;81.20;101269.18;115589;1200;103034;-77
2021/03/30 02:42:18;;;;;;;38.47;25.20;;;;;;;9.26;81.33;101271.77;115369;1196;103063;-78
2021/03/30 02:44:49;;;;;;;35.43;24.40;;;;;;;9.27;81.38;101273.48;115451;1197;103043;-78
2021/03/30 02:47:19;;;;;;;37.93;24.10;;;;;;;9.27;81.21;101270.88;115270;1196;103149;-79
2021/03/30 02:49:46;;;;;;;36.57;24.50;;;;;;;9.29;81.16;101266.52;115566;1196;103643;-77
2021/03/30 02:52:15;;;;;;;34.33;22.90;;;;;;;9.27;81.23;101274.34;115319;1196;103079;-78
2021/03/30 02:54:42;;;;;;;38.57;23.23;;;;;;;9.28;81.19;101272.61;115460;1199;103060;-77
2021/03/30 02:57:13;;;;;;;34.17;23.43;;;;;;;9.30;81.30;101276.91;115501;1197;102999;-77
2021/03/30 02:59:41;;;;;;;36.60;24.03;;;;;;;9.32;81.28;101276.89;115512;1199;103091;-77
2021/03/30 03:02:08;;;;;;;35.50;23.70;;;;;;;9.33;81.01;101276.02;115525;1199;103152;-77
2021/03/30 03:04:36;;;;;;;34.20;23.90;;;;;;;9.33;81.18;101279.48;115310;1200;103098;-77
2021/03/30 03:07:04;;;;;;;31.97;22.53;;;;;;;9.34;81.11;101277.77;115338;1196;100770;-77
2021/03/30 03:09:33;;;;;;;36.30;24.07;;;;;;;9.35;80.91;101276.89;115577;1196;103595;-77
2021/03/30 03:12:01;;;;;;;32.00;22.37;;;;;;;9.37;81.02;101277.73;115269;1199;103079;-78
2021/03/30 03:14:29;;;;;;;34.73;23.53;;;;;;;9.36;80.88;101276.88;115321;1196;103043;-78
2021/03/30 03:16:56;;;;;;;36.03;23.00;;;;;;;9.38;80.99;101275.11;115313;1200;103027;-78
2021/03/30 03:19:24;;;;;;;33.80;23.60;;;;;;;9.40;81.10;101282.91;115487;1199;104402;-78
2021/03/30 03:21:52;;;;;;;35.05;22.35;;;;;;;9.41;80.77;101282.02;115339;1196;103021;-78
2021/03/30 03:24:20;;;;;;;34.13;22.77;;;;;;;9.40;80.84;101282.91;115274;1196;103149;-77
2021/03/30 03:26:48;;;;;;;32.27;21.70;;;;;;;9.37;80.89;101283.80;115564;1196;103011;-77
2021/03/30 03:29:18;;;;;;;32.57;22.10;;;;;;;9.37;80.88;101278.59;115314;1199;102993;-77
2021/03/30 03:31:47;;;;;;;31.85;21.85;;;;;;;9.39;80.81;101281.17;115380;1199;103107;-78
2021/03/30 03:34:18;;;;;;;29.63;21.33;;;;;;;9.39;80.87;101276.83;115345;1199;103037;-77
2021/03/30 03:36:48;;;;;;;33.13;21.57;;;;;;;9.40;80.69;101282.91;115239;1200;103118;-77
2021/03/30 03:39:19;;;;;;;35.97;23.03;;;;;;;9.40;80.81;101272.48;115342;1198;103094;-78
2021/03/30 03:41:47;;;;;;;31.87;22.00;;;;;;;9.40;80.81;101275.09;115309;1196;102976;-78
2021/03/30 03:44:14;;;;;;;36.47;23.87;;;;;;;9.43;81.30;101277.66;115297;1196;102991;-78
2021/03/30 03:46:41;;;;;;;36.20;24.20;;;;;;;9.44;80.95;101274.17;115571;1196;103044;-77
2021/03/30 03:49:10;;;;;;;32.90;22.67;;;;;;;9.45;80.55;101275.03;115295;1196;103047;-78
2021/03/30 03:51:41;;;;;;;33.23;23.43;;;;;;;9.47;80.71;101278.48;115569;1196;103082;-77
2021/03/30 03:54:11;;;;;;;36.23;23.30;;;;;;;9.46;80.81;101280.22;115403;1200;103004;-78
2021/03/30 03:56:43;;;;;;;31.17;21.87;;;;;;;9.44;80.78;101279.38;115337;1197;103015;-79
2021/03/30 03:59:17;;;;;;;33.50;23.57;;;;;;;9.45;80.89;101288.91;115313;1200;102957;-78
2021/03/30 04:01:49;;;;;;;32.47;21.63;;;;;;;9.43;80.97;101282.00;115289;1196;103267;-77
2021/03/30 04:04:31;;;;;;;33.87;22.83;;;;;;;9.40;80.95;101280.30;115353;1199;103082;-77
2021/03/30 04:07:03;;;;;;;36.90;22.40;;;;;;;9.36;81.04;101281.22;115415;1196;102806;-78
2021/03/30 04:09:33;;;;;;;30.97;22.20;;;;;;;9.35;81.02;101290.77;115390;1196;103465;-78
2021/03/30 04:12:02;;;;;;;33.97;23.37;;;;;;;9.35;81.18;101285.56;115341;1197;102105;-78
2021/03/30 04:14:33;;;;;;;37.33;24.47;;;;;;;9.35;81.41;101288.17;115292;1196;103101;-77
2021/03/30 04:17:00;;;;;;;37.65;24.85;;;;;;;9.36;81.46;101296.84;115565;1199;103018;-78
2021/03/30 04:19:27;;;;;;;33.13;23.30;;;;;;;9.36;81.49;101278.61;115334;1199;103034;-77
2021/03/30 04:21:54;;;;;;;36.08;22.53;;;;;;;9.34;81.06;101286.44;115292;1196;103011;-77
2021/03/30 04:24:21;;;;;;;31.83;23.33;;;;;;;9.33;81.55;101292.50;115289;1199;103127;-77
2021/03/30 04:26:48;;;;;;;32.45;24.18;;;;;;;9.34;81.46;101293.39;115282;1200;103136;-77
2021/03/30 04:29:15;;;;;;;37.03;23.47;;;;;;;9.34;81.57;101296.00;115325;1196;102915;-78
2021/03/30 04:31:42;;;;;;;33.70;24.05;;;;;;;9.33;81.59;101296.84;115441;1199;103078;-78
2021/03/30 04:34:14;;;;;;;34.17;24.07;;;;;;;9.32;81.63;101290.77;115564;1197;103015;-77
2021/03/30 04:36:41;;;;;;;32.97;23.03;;;;;;;9.31;81.86;101293.39;115279;1196;103509;-77
2021/03/30 04:39:08;;;;;;;34.60;24.07;;;;;;;9.30;81.95;101287.33;115297;1198;103053;-78
2021/03/30 04:41:35;;;;;;;33.97;24.70;;;;;;;9.30;81.73;101287.33;115286;1198;103469;-77
2021/03/30 04:44:02;;;;;;;38.45;25.68;;;;;;;9.32;81.98;101295.98;115431;1198;103114;-77
2021/03/30 04:46:31;;;;;;;35.30;26.83;;;;;;;9.33;82.17;101296.84;115297;1199;103162;-78
2021/03/30 04:48:58;;;;;;;36.60;25.73;;;;;;;9.34;82.00;101299.45;115281;1200;103145;-78
2021/03/30 04:51:25;;;;;;;32.47;23.67;;;;;;;9.33;82.23;101297.70;115366;1198;103005;-78
2021/03/30 04:53:52;;;;;;;36.30;25.17;;;;;;;9.32;81.83;101300.33;115323;1199;103079;-77
2021/03/30 04:56:19;;;;;;;36.70;26.73;;;;;;;9.33;82.09;101302.91;115340;1199;103008;-78
2021/03/30 04:58:46;;;;;;;38.63;27.17;;;;;;;9.31;82.24;101296.86;115353;1198;103130;-77
2021/03/30 05:01:13;;;;;;;36.70;26.37;;;;;;;9.35;82.37;101297.72;115540;1199;103180;-77
2021/03/30 05:03:40;;;;;;;39.73;26.13;;;;;;;9.34;82.25;101291.65;115327;1199;102970;-77
2021/03/30 05:06:08;;;;;;;42.93;26.50;;;;;;;9.33;82.22;101297.70;115389;1198;102985;-77
2021/03/30 05:08:36;;;;;;;38.37;27.50;;;;;;;9.32;82.13;101295.12;115330;1200;102979;-77
2021/03/30 05:11:04;;;;;;;40.93;28.67;;;;;;;9.36;82.53;101291.63;115283;1200;103018;-77
2021/03/30 05:13:31;;;;;;;40.50;27.83;;;;;;;9.39;82.54;101291.59;115250;1200;103056;-77
2021/03/30 05:15:58;;;;;;;37.20;26.60;;;;;;;9.39;82.47;101304.61;115543;1196;103116;-77
2021/03/30 05:18:25;;;;;;;41.93;28.17;;;;;;;9.40;82.34;101303.73;115568;1199;103235;-77
2021/03/30 05:20:53;;;;;;;38.20;25.90;;;;;;;9.41;82.41;101297.64;115303;1199;105067;-78
2021/03/30 05:23:20;;;;;;;39.60;27.27;;;;;;;9.44;82.62;101300.20;115228;1201;103062;-77
2021/03/30 05:25:50;;;;;;;39.00;28.25;;;;;;;9.45;82.38;101299.33;115577;1196;103005;-78
2021/03/30 05:28:18;;;;;;;42.33;29.33;;;;;;;9.50;82.82;101299.27;115332;1196;103062;-76
2021/03/30 05:30:46;;;;;;;38.10;28.20;;;;;;;9.55;82.62;101302.70;115373;1200;102075;-79
2021/03/30 05:33:14;;;;;;;47.63;29.67;;;;;;;9.58;82.80;101303.53;115289;1200;103187;-77
2021/03/30 05:35:41;;;;;;;46.00;30.07;;;;;;;9.62;82.92;101300.00;115402;1199;103133;-77
2021/03/30 05:38:09;;;;;;;37.50;26.20;;;;;;;9.64;82.63;101308.66;115311;1200;103082;-77
2021/03/30 05:40:36;;;;;;;41.98;28.05;;;;;;;9.66;82.58;101309.50;115279;1198;103050;-77
2021/03/30 05:43:04;;;;;;;41.97;28.67;;;;;;;9.66;82.40;101306.90;115292;1199;103148;-77
2021/03/30 05:45:31;;;;;;;45.65;29.75;;;;;;;9.67;82.63;101295.59;115402;1196;103024;-77
2021/03/30 05:47:59;;;;;;;37.20;27.15;;;;;;;9.66;82.82;101301.69;115235;1198;103047;-78
2021/03/30 05:50:29;;;;;;;36.80;26.43;;;;;;;9.68;82.63;101305.13;115312;1196;103133;-78
2021/03/30 05:53:05;;;;;;;37.87;27.33;;;;;;;9.72;82.63;101305.13;115285;1198;103076;-77
2021/03/30 05:55:39;;;;;;;35.83;26.73;;;;;;;9.74;82.75;101316.39;115613;1199;103091;-78
2021/03/30 05:58:08;;;;;;;46.00;29.50;;;;;;;9.77;82.58;101313.73;115557;1198;103040;-78
2021/03/30 06:00:38;;;;;;;37.17;27.43;;;;;;;9.78;82.68;101310.25;115446;1199;103853;-77
2021/03/30 06:03:10;;;;;;;38.70;27.83;;;;;;;9.81;82.85;101305.00;115308;1199;102900;-77
2021/03/30 06:05:39;;;;;;;39.30;28.60;;;;;;;9.87;82.87;101310.13;115298;1196;103149;-79
2021/03/30 06:08:07;;;;;;;39.00;26.83;;;;;;;9.90;82.80;101304.91;115304;1196;103053;-78
2021/03/30 06:10:36;;;;;;;34.57;26.33;;;;;;;9.93;82.79;101315.28;115307;1199;103162;-77
2021/03/30 06:13:05;;;;;;;42.53;27.33;;;;;;;9.94;82.70;101311.80;115336;1198;103088;-77
2021/03/30 06:15:36;;;;;;;38.57;27.47;;;;;;;9.95;82.64;101310.91;115375;1199;103102;-77
2021/03/30 06:18:24;;;;;;;36.50;27.65;;;;;;;9.97;82.57;101307.40;115296;1200;102991;-78
2021/03/30 06:20:51;;;;;;;35.13;26.57;;;;;;;10.00;82.68;101312.56;115336;1199;103011;-77
2021/03/30 06:23:27;;;;;;;36.73;25.37;;;;;;;10.01;82.49;101313.42;115306;1199;103629;-78
2021/03/30 06:25:56;;;;;;;37.03;27.23;;;;;;;10.04;82.62;101309.91;115448;1196;103181;-77
2021/03/30 06:28:31;;;;;;;36.95;25.95;;;;;;;10.07;82.58;101312.51;115305;1199;103034;-78
2021/03/30 06:31:12;;;;;;;35.50;26.10;;;;;;;10.12;82.66;101311.55;115306;1197;103043;-79
2021/03/30 06:33:56;;;;;;;38.20;27.07;;;;;;;10.19;82.74;101310.58;115329;1199;103085;-78
2021/03/30 06:36:26;;;;;;;40.63;24.57;;;;;;;10.26;82.59;101309.66;115377;1196;103031;-78
2021/03/30 06:39:10;;;;;;;38.13;25.77;;;;;;;10.32;82.55;101319.13;115261;1199;103091;-78
2021/03/30 06:41:53;;;;;;;42.67;28.10;;;;;;;10.39;82.29;101323.37;115519;1199;103034;-78
2021/03/30 06:44:26;;;;;;;40.43;26.27;;;;;;;10.47;82.17;101323.28;115464;1198;103084;-78
2021/03/30 06:47:16;;;;;;;36.77;26.47;;;;;;;10.52;81.99;101321.45;115505;1196;103094;-79
2021/03/30 06:50:20;;;;;;;34.10;24.87;;;;;;;10.58;81.96;101321.35;115589;1197;103191;-78
2021/03/30 06:52:47;;;;;;;35.67;25.90;;;;;;;10.68;81.95;101325.56;115311;1196;103059;-79
2021/03/30 06:55:25;;;;;;;37.17;25.93;;;;;;;10.77;81.85;101325.43;115551;1200;103056;-79
2021/03/30 06:57:57;;;;;;;36.57;25.13;;;;;;;10.86;81.75;101324.41;115566;1199;103018;-79
2021/03/30 07:00:25;;;;;;;36.93;25.50;;;;;;;10.93;81.62;101319.94;115342;1200;103108;-79
2021/03/30 07:03:00;;;;;;;35.97;24.93;;;;;;;11.01;81.69;101325.91;115289;1198;103514;-77
2021/03/30 07:05:49;;;;;;;34.93;24.53;;;;;;;11.06;81.33;101324.08;115519;1200;103111;-78
2021/03/30 07:08:19;;;;;;;36.90;24.73;;;;;;;11.13;81.17;101323.07;115526;1200;102838;-77
2021/03/30 07:10:54;;;;;;;33.23;23.03;;;;;;;11.22;81.03;101324.67;115325;1196;103091;-78
2021/03/30 07:13:23;;;;;;;31.83;23.33;;;;;;;11.28;81.05;101328.03;115304;1199;101229;-77
2021/03/30 07:16:00;;;;;;;31.10;23.67;;;;;;;11.31;80.69;101333.22;115370;1200;103407;-78
2021/03/30 07:18:35;;;;;;;35.97;24.83;;;;;;;11.36;80.47;101336.61;115542;1199;103082;-78
2021/03/30 07:21:11;;;;;;;33.87;24.83;;;;;;;11.39;80.44;101338.30;115301;1197;103028;-78
2021/03/30 07:23:41;;;;;;;31.75;24.15;;;;;;;11.40;80.16;101343.49;115305;1199;102996;-77
2021/03/30 07:26:15;;;;;;;32.13;23.27;;;;;;;11.42;79.97;101344.32;115352;1199;103015;-79
2021/03/30 07:29:07;;;;;;;37.87;24.70;;;;;;;11.42;79.88;101348.69;115303;1199;101597;-79
2021/03/30 07:31:48;;;;;;;34.33;26.17;;;;;;;11.42;79.79;101346.07;115465;1198;103088;-78
2021/03/30 07:34:44;;;;;;;36.57;25.73;;;;;;;11.44;79.75;101342.54;115552;1199;102803;-78
2021/03/30 07:37:18;;;;;;;33.50;25.15;;;;;;;11.50;79.64;101339.84;115248;1203;103143;-77
2021/03/30 07:39:57;;;;;;;32.37;24.33;;;;;;;11.57;79.53;101334.48;115199;1203;101277;-78
2021/03/30 07:42:25;;;;;;;37.43;25.77;;;;;;;11.62;79.39;101340.48;114969;1203;103216;-78
2021/03/30 07:44:54;;;;;;;36.00;25.23;;;;;;;11.70;79.23;101346.44;115052;1202;103440;-77
2021/03/30 07:47:21;;;;;;;38.83;25.67;;;;;;;11.77;79.11;101350.64;115050;1202;103012;-78
2021/03/30 07:49:51;;;;;;;37.70;26.10;;;;;;;11.82;78.98;101338.37;115038;1202;103254;-79
2021/03/30 07:52:26;;;;;;;34.00;26.30;;;;;;;11.87;78.51;101344.39;115010;1202;103228;-78
2021/03/30 07:55:16;;;;;;;32.55;25.45;;;;;;;11.92;78.52;101337.30;115044;1202;103034;-78
2021/03/30 07:57:59;;;;;;;36.23;26.07;;;;;;;12.00;78.32;101337.99;114942;1202;103097;-78
2021/03/30 08:00:48;;;;;;;34.55;25.50;;;;;;;12.08;78.11;101351.79;115160;1203;102941;-78
2021/03/30 08:03:27;;;;;;;35.77;25.03;;;;;;;12.16;78.28;101349.00;114996;1203;102995;-78
2021/03/30 08:06:19;;;;;;;35.55;25.20;;;;;;;12.25;77.99;101353.19;115014;1203;103143;-78
2021/03/30 08:09:07;;;;;;;33.00;24.70;;;;;;;12.31;77.52;101353.05;114985;1202;102952;-78
2021/03/30 08:11:38;;;;;;;35.87;25.33;;;;;;;12.35;77.51;101355.55;115115;1203;103101;-76
2021/03/30 08:14:12;;;;;;;33.17;24.10;;;;;;;12.43;77.58;101358.02;115092;1199;102928;-78
2021/03/30 08:16:50;;;;;;;37.70;25.45;;;;;;;12.49;77.22;101360.49;115311;1200;103044;-78
2021/03/30 08:19:19;;;;;;;35.80;24.07;;;;;;;12.56;77.16;101363.82;115368;1197;103507;-79
2021/03/30 08:21:56;;;;;;;36.43;25.27;;;;;;;12.62;77.13;101358.47;115324;1197;103008;-78
2021/03/30 08:24:25;;;;;;;33.60;24.17;;;;;;;12.68;77.05;101353.94;115504;1196;102967;-78
2021/03/30 08:26:53;;;;;;;35.33;24.60;;;;;;;12.75;76.81;101359.02;115349;1199;103111;-77
2021/03/30 08:29:40;;;;;;;31.17;25.13;;;;;;;12.76;76.69;101364.25;115378;1199;103049;-78
2021/03/30 08:32:09;;;;;;;31.40;24.07;;;;;;;12.81;76.60;101364.14;115555;1196;100586;-78
2021/03/30 08:34:43;;;;;;;35.37;26.30;;;;;;;12.81;76.17;101359.77;115306;1199;102455;-77
2021/03/30 08:37:15;;;;;;;32.13;25.17;;;;;;;12.86;76.17;101359.64;115237;1196;103059;-79
2021/03/30 08:39:43;;;;;;;32.80;25.13;;;;;;;12.90;75.98;101356.05;115333;1196;103124;-78
2021/03/30 08:42:17;;;;;;;32.47;24.27;;;;;;;12.92;75.73;101359.48;115325;1198;103686;-79
2021/03/30 08:45:01;;;;;;;31.33;25.53;;;;;;;12.94;75.72;101361.20;115316;1200;103014;-78
2021/03/30 08:47:42;;;;;;;27.47;23.30;;;;;;;13.03;75.54;101354.86;115577;1199;102990;-79
2021/03/30 08:50:28;;;;;;;34.30;25.10;;;;;;;13.14;75.50;101372.95;115289;1200;103120;-78
2021/03/30 08:52:57;;;;;;;32.15;24.70;;;;;;;13.23;75.26;101368.34;115328;1198;102998;-79
2021/03/30 08:55:31;;;;;;;35.77;26.43;;;;;;;13.33;75.14;101357.66;115350;1199;102998;-79
2021/03/30 08:58:01;;;;;;;31.83;24.23;;;;;;;13.40;75.19;101351.34;115284;1199;103121;-78
2021/03/30 09:00:29;;;;;;;35.80;24.00;;;;;;;13.56;75.02;101360.52;115297;1199;103025;-79
2021/03/30 09:03:09;;;;;;;28.00;23.30;;;;;;;13.76;74.67;101359.98;115326;1199;103027;-78
2021/03/30 09:05:38;;;;;;;31.00;22.87;;;;;;;13.86;74.39;101357.07;115520;1198;103081;-79
2021/03/30 09:08:07;;;;;;;26.70;21.70;;;;;;;13.93;73.71;101351.64;115338;1200;103018;-78
2021/03/30 09:10:35;;;;;;;26.07;22.07;;;;;;;13.98;73.55;101358.47;115344;1199;103168;-79
2021/03/30 09:13:16;;;;;;;29.60;21.90;;;;;;;14.01;73.55;101357.55;115289;1199;103020;-75
2021/03/30 09:15:44;;;;;;;26.87;21.60;;;;;;;14.02;72.95;101359.27;115349;1199;103050;-79
2021/03/30 09:18:23;;;;;;;28.07;20.73;;;;;;;13.96;72.77;101359.42;115362;1199;102809;-80
2021/03/30 09:21:07;;;;;;;31.53;22.07;;;;;;;13.88;72.75;101371.00;115422;1196;103099;-80
2021/03/30 09:23:34;;;;;;;28.40;21.60;;;;;;;13.83;72.85;101364.17;115362;1196;104023;-79
2021/03/30 09:26:10;;;;;;;27.97;21.40;;;;;;;13.83;72.93;101367.66;115332;1199;103044;-79
2021/03/30 09:28:40;;;;;;;24.97;19.80;;;;;;;13.85;72.90;101372.85;115348;1198;103047;-78
2021/03/30 09:31:07;;;;;;;25.07;18.70;;;;;;;13.85;72.67;101362.36;115377;1196;104709;-79
2021/03/30 09:33:35;;;;;;;26.00;19.73;;;;;;;13.89;73.04;101359.60;115363;1198;103075;-79
2021/03/30 09:36:10;;;;;;;23.57;17.50;;;;;;;13.95;72.63;101360.33;115362;1199;103071;-78
2021/03/30 09:38:52;;;;;;;23.23;17.70;;;;;;;13.98;72.52;101368.09;115376;1199;103127;-78
2021/03/30 09:41:40;;;;;;;22.23;18.20;;;;;;;13.95;72.45;101366.42;115526;1196;102877;-79
2021/03/30 09:44:09;;;;;;;24.40;17.90;;;;;;;13.89;72.27;101367.47;115592;1199;103126;-79
2021/03/30 09:46:44;;;;;;;23.40;18.30;;;;;;;13.82;72.44;101368.55;115345;1199;103005;-78
2021/03/30 09:49:13;;;;;;;27.17;19.90;;;;;;;13.73;72.50;101371.41;115326;1199;101922;-78
2021/03/30 09:51:43;;;;;;;26.23;19.73;;;;;;;13.65;72.35;101362.91;115543;1198;102092;-79
2021/03/30 09:54:29;;;;;;;24.27;18.97;;;;;;;13.64;72.55;101358.54;115333;1199;103104;-78
2021/03/30 09:57:16;;;;;;;25.57;19.30;;;;;;;13.64;72.73;101361.16;115327;1196;102995;-77
2021/03/30 09:59:50;;;;;;;26.43;19.20;;;;;;;13.62;72.74;101365.59;115396;1196;102970;-80
2021/03/30 10:02:18;;;;;;;27.97;19.03;;;;;;;13.59;72.58;101361.30;115563;1196;101936;-79
2021/03/30 10:04:52;;;;;;;25.80;19.67;;;;;;;13.56;72.44;101360.52;115602;1197;102033;-78
2021/03/30 10:07:20;;;;;;;23.03;17.70;;;;;;;13.51;72.73;101363.27;115642;1199;103043;-78
2021/03/30 10:10:01;;;;;;;21.93;17.07;;;;;;;13.47;72.61;101369.50;115338;1200;103149;-80
2021/03/30 10:12:32;;;;;;;24.53;19.37;;;;;;;13.41;72.65;101363.54;115563;1200;103040;-80
2021/03/30 10:15:01;;;;;;;25.33;20.33;;;;;;;13.41;72.93;101360.92;115558;1196;103098;-79
2021/03/30 10:17:31;;;;;;;24.13;18.33;;;;;;;13.47;73.05;101361.64;115369;1198;103123;-79
2021/03/30 10:20:00;;;;;;;22.87;18.13;;;;;;;13.61;73.23;101366.49;115309;1199;101485;-79
2021/03/30 10:22:33;;;;;;;21.43;15.40;;;;;;;13.84;73.15;101365.89;115353;1196;103004;-79
2021/03/30 10:25:19;;;;;;;17.60;14.07;;;;;;;14.00;72.34;101361.05;115383;1199;103079;-80
2021/03/30 10:27:52;;;;;;;17.55;14.60;;;;;;;14.06;71.98;101364.38;115339;1200;102999;-79
2021/03/30 10:30:53;;;;;;;19.57;15.73;;;;;;;14.06;71.94;101366.14;115551;1197;103084;-79
2021/03/30 10:33:47;;;;;;;17.47;13.97;;;;;;;14.00;71.72;101361.91;115346;1197;103024;-81
2021/03/30 10:36:18;;;;;;;15.10;12.87;;;;;;;13.90;71.71;101356.08;115408;1200;103018;-79
2021/03/30 10:39:02;;;;;;;14.53;12.30;;;;;;;13.82;71.63;101368.55;115563;1196;103009;-78
2021/03/30 10:41:34;;;;;;;15.73;11.47;;;;;;;13.73;71.42;101360.07;115340;1200;103056;-79
2021/03/30 10:44:02;;;;;;;12.03;9.60;;;;;;;13.62;71.42;101365.59;115349;1199;103059;-79
2021/03/30 10:46:29;;;;;;;11.13;9.97;;;;;;;13.55;71.52;101364.91;115299;1196;103168;-78
2021/03/30 10:49:05;;;;;;;12.33;9.40;;;;;;;13.52;71.54;101358.89;115348;1196;103063;-79
2021/03/30 10:51:34;;;;;;;12.67;8.67;;;;;;;13.52;71.39;101357.13;115341;1196;102989;-78
2021/03/30 10:54:04;;;;;;;11.77;8.27;;;;;;;13.52;71.31;101364.13;115334;1196;103116;-78
2021/03/30 10:56:32;;;;;;;10.40;8.00;;;;;;;13.52;71.26;101362.38;115406;1196;103137;-78
2021/03/30 10:59:06;;;;;;;9.65;8.30;;;;;;;13.55;71.36;101358.80;115376;1199;101874;-79
2021/03/30 11:01:33;;;;;;;10.13;7.17;;;;;;;13.55;71.06;101375.39;115385;1196;102980;-79
2021/03/30 11:04:00;;;;;;;8.93;6.90;;;;;;;13.56;71.14;101371.01;115572;1199;101260;-78
2021/03/30 11:06:27;;;;;;;7.83;6.17;;;;;;;13.55;70.77;101364.05;115429;1198;103146;-78
2021/03/30 11:08:54;;;;;;;7.50;6.17;;;;;;;13.54;71.02;101362.33;115402;1196;103116;-79
2021/03/30 11:11:21;;;;;;;11.00;5.90;;;;;;;13.55;71.00;101364.05;115360;1199;103092;-79
2021/03/30 11:13:48;;;;;;;7.77;4.90;;;;;;;13.55;70.63;101358.80;115354;1199;103146;-79
2021/03/30 11:16:16;;;;;;;7.27;5.00;;;;;;;13.53;70.45;101361.47;115357;1196;103615;-78
2021/03/30 11:18:43;;;;;;;7.77;5.70;;;;;;;13.55;70.54;101366.66;115419;1197;102954;-79
2021/03/30 11:21:10;;;;;;;8.83;6.33;;;;;;;13.55;70.57;101364.05;115640;1196;103127;-79
2021/03/30 11:23:42;;;;;;;8.47;5.30;;;;;;;13.53;70.58;101360.61;115340;1199;103030;-79